Time;durP1;ratioP1;P1;durP2;ratioP2;P2;SDS_P1;SDS_P2;PMS_P1;PMS_P2;Temp;Humidity;BMP_temperature;BMP_pressure;BME280_temperature;BME280_humidity;BME280_pressure;Samples;Min_cycle;Max_cycle;Signal;HPM_P1;HPM_P2
2021/06/30 00:01:53;;;;;;;3.40;3.13;;;;;;;16.94;96.92;99017.53;5114693;28;20574;-74
2021/06/30 00:04:19;;;;;;;4.68;3.17;;;;;;;16.83;97.88;99015.81;5114288;28;20251;-74
2021/06/30 00:06:46;;;;;;;4.20;3.45;;;;;;;16.60;99.22;99010.59;5114406;28;20267;-73
2021/06/30 00:09:14;;;;;;;8.38;3.30;;;;;;;16.41;100.00;99010.56;5114653;28;20282;-73
2021/06/30 00:11:41;;;;;;;3.40;3.05;;;;;;;16.64;100.00;99014.78;5114346;28;20205;-74
2021/06/30 00:14:09;;;;;;;3.45;2.80;;;;;;;16.57;100.00;99010.03;5114653;28;20286;-74
2021/06/30 00:16:36;;;;;;;6.35;3.90;;;;;;;16.54;100.00;99007.59;5114188;28;20187;-73
2021/06/30 00:19:07;;;;;;;6.65;3.42;;;;;;;16.50;100.00;99008.88;5114432;28;20575;-73
2021/06/30 00:21:33;;;;;;;6.40;4.07;;;;;;;16.50;100.00;99001.56;5113978;28;20240;-73
2021/06/30 00:24:00;;;;;;;5.95;3.50;;;;;;;16.50;100.00;99009.72;5112325;28;20587;-74
2021/06/30 00:26:28;;;;;;;3.75;3.45;;;;;;;16.41;100.00;99008.72;5114184;28;20199;-74
2021/06/30 00:28:55;;;;;;;5.82;4.10;;;;;;;16.31;100.00;98997.00;5111978;28;20211;-73
2021/06/30 00:31:22;;;;;;;4.47;3.60;;;;;;;16.29;100.00;99000.84;5113937;28;20191;-74
2021/06/30 00:33:49;;;;;;;5.88;4.55;;;;;;;16.17;100.00;99002.81;5114107;28;20183;-74
2021/06/30 00:36:17;;;;;;;4.20;3.90;;;;;;;16.18;100.00;99009.97;5113658;28;20293;-72
2021/06/30 00:38:44;;;;;;;4.20;3.63;;;;;;;16.20;100.00;99016.97;5113633;28;20180;-73
2021/06/30 00:41:10;;;;;;;4.75;3.47;;;;;;;16.24;100.00;99009.41;5113591;28;20294;-73
2021/06/30 00:43:37;;;;;;;3.85;3.55;;;;;;;16.26;100.00;99011.00;5113593;28;20290;-72
2021/06/30 00:46:04;;;;;;;4.50;3.55;;;;;;;16.23;100.00;99007.69;5113493;28;20281;-74
2021/06/30 00:48:30;;;;;;;5.47;3.45;;;;;;;16.31;100.00;99001.56;5113872;28;20211;-74
2021/06/30 00:50:57;;;;;;;3.67;3.20;;;;;;;16.29;100.00;99006.28;5113789;28;20669;-74
2021/06/30 00:53:25;;;;;;;5.03;2.83;;;;;;;16.38;100.00;99006.28;5112406;28;20266;-73
2021/06/30 00:55:52;;;;;;;5.95;4.38;;;;;;;16.34;100.00;99004.00;5092936;28;20223;-74
2021/06/30 00:58:19;;;;;;;6.68;2.95;;;;;;;16.29;100.00;99004.41;5092825;28;20235;-74
2021/06/30 01:00:49;;;;;;;4.43;2.95;;;;;;;16.40;100.00;99012.44;5093024;28;20180;-74
2021/06/30 01:03:15;;;;;;;4.55;2.70;;;;;;;16.52;100.00;99012.31;5092548;28;20227;-73
2021/06/30 01:05:42;;;;;;;3.55;2.70;;;;;;;16.50;98.80;99015.16;5093181;28;20669;-73
2021/06/30 01:08:09;;;;;;;7.97;2.63;;;;;;;16.61;98.10;99012.31;5092675;28;20275;-74
2021/06/30 01:10:37;;;;;;;3.90;2.90;;;;;;;16.61;97.25;99012.31;5093153;28;20231;-75
2021/06/30 01:13:06;;;;;;;2.60;2.40;;;;;;;16.64;96.86;99003.91;5092634;28;20242;-73
2021/06/30 01:15:44;;;;;;;4.22;2.63;;;;;;;16.57;97.63;99008.16;5092849;28;20669;-73
2021/06/30 01:18:11;;;;;;;2.78;2.58;;;;;;;16.67;97.27;99005.47;5092952;28;20271;-73
2021/06/30 01:20:37;;;;;;;4.82;2.50;;;;;;;16.66;97.35;99014.59;5092792;28;20219;-74
2021/06/30 01:23:07;;;;;;;3.28;2.63;;;;;;;16.69;96.85;99011.63;5092604;28;20228;-73
2021/06/30 01:25:33;;;;;;;3.35;2.65;;;;;;;16.60;97.31;99007.91;5094543;28;21056;-73
2021/06/30 01:28:00;;;;;;;2.65;2.45;;;;;;;16.66;96.34;99004.63;5093090;28;20208;-73
2021/06/30 01:30:27;;;;;;;2.92;2.60;;;;;;;16.81;94.38;99006.94;5092516;28;20220;-73
2021/06/30 01:32:53;;;;;;;2.85;1.90;;;;;;;16.71;95.09;99006.91;5092804;28;20685;-74
2021/06/30 01:35:22;;;;;;;3.47;2.33;;;;;;;16.68;94.21;99009.88;5092842;28;20208;-73
2021/06/30 01:37:50;;;;;;;4.22;2.17;;;;;;;16.61;94.98;99014.19;5092852;28;20303;-73
2021/06/30 01:40:19;;;;;;;3.35;2.45;;;;;;;16.53;94.66;99008.59;5092818;28;20200;-73
2021/06/30 01:42:47;;;;;;;2.80;2.20;;;;;;;16.53;93.75;99016.72;5092506;28;20290;-72
2021/06/30 01:45:15;;;;;;;2.92;1.80;;;;;;;16.67;92.91;99010.91;5092721;28;20227;-73
2021/06/30 01:47:42;;;;;;;4.97;2.70;;;;;;;16.54;93.05;99010.31;5092427;28;20224;-73
2021/06/30 01:50:10;;;;;;;4.05;2.30;;;;;;;16.54;93.24;99010.31;5091976;28;20287;-74
2021/06/30 01:52:37;;;;;;;3.20;2.50;;;;;;;16.71;91.95;99000.59;5092636;28;20275;-74
2021/06/30 01:55:06;;;;;;;2.97;2.40;;;;;;;16.87;90.38;99003.66;5092238;28;20242;-73
2021/06/30 01:57:40;;;;;;;3.35;3.15;;;;;;;16.87;89.26;99009.94;5092177;28;20279;-74
2021/06/30 02:00:08;;;;;;;5.57;3.40;;;;;;;16.95;89.29;99011.91;5096303;28;20196;-73
2021/06/30 02:02:35;;;;;;;6.10;2.95;;;;;;;16.97;89.23;99000.91;5092379;28;20634;-74
2021/06/30 02:05:08;;;;;;;4.53;2.80;;;;;;;16.94;88.95;99001.22;5092163;28;20591;-72
2021/06/30 02:07:34;;;;;;;2.65;2.45;;;;;;;17.01;88.97;99010.50;5092714;28;20188;-73
2021/06/30 02:10:01;;;;;;;3.45;3.10;;;;;;;17.06;88.08;99014.50;5093095;28;20214;-73
2021/06/30 02:12:28;;;;;;;6.70;3.20;;;;;;;17.07;87.81;99007.19;5092117;28;20195;-73
2021/06/30 02:14:56;;;;;;;3.20;2.50;;;;;;;17.18;86.99;99008.91;5092539;28;20733;-73
2021/06/30 02:17:27;;;;;;;2.85;2.65;;;;;;;17.23;86.39;99012.91;5092470;28;20672;-74
2021/06/30 02:19:53;;;;;;;3.90;2.35;;;;;;;17.19;87.05;99016.06;5091945;28;20224;-73
2021/06/30 02:22:20;;;;;;;3.03;2.70;;;;;;;17.20;86.82;99015.06;5094591;28;20271;-73
2021/06/30 02:24:47;;;;;;;4.00;3.00;;;;;;;17.14;86.48;99012.91;5096147;28;20211;-72
2021/06/30 02:27:15;;;;;;;7.85;3.05;;;;;;;17.12;86.84;99012.19;5096270;28;20204;-73
2021/06/30 02:29:42;;;;;;;3.85;3.45;;;;;;;17.22;86.14;99019.34;5096390;28;20275;-73
2021/06/30 02:32:10;;;;;;;3.33;3.13;;;;;;;17.30;85.73;99010.47;5115548;28;20227;-74
2021/06/30 02:34:36;;;;;;;3.40;3.10;;;;;;;17.35;84.82;99013.59;5116696;28;20217;-74
2021/06/30 02:37:04;;;;;;;6.45;3.67;;;;;;;17.16;85.22;99006.31;5116197;28;20286;-74
2021/06/30 02:39:31;;;;;;;3.08;2.85;;;;;;;17.14;85.40;99008.34;5116180;28;20689;-74
2021/06/30 02:41:58;;;;;;;4.43;3.20;;;;;;;17.14;85.54;99002.03;5116319;28;20214;-74
2021/06/30 02:44:24;;;;;;;6.25;3.65;;;;;;;17.07;86.23;99005.34;5116139;28;20216;-73
2021/06/30 02:46:51;;;;;;;4.15;3.75;;;;;;;17.09;86.63;99000.63;5106963;28;20192;-72
2021/06/30 02:49:19;;;;;;;14.80;5.72;;;;;;;17.08;86.83;99001.59;5095474;28;20272;-74
2021/06/30 02:51:46;;;;;;;5.88;4.30;;;;;;;17.05;86.99;99001.91;5095911;28;20609;-73
2021/06/30 02:54:13;;;;;;;35.17;13.18;;;;;;;16.96;88.05;99004.63;5095849;28;20263;-74
2021/06/30 02:56:39;;;;;;;5.88;5.38;;;;;;;16.93;88.70;99004.91;5095387;28;20222;-74
2021/06/30 02:59:06;;;;;;;6.50;6.00;;;;;;;16.95;88.47;99013.78;5095704;28;20631;-74
2021/06/30 03:01:33;;;;;;;6.97;6.38;;;;;;;17.04;88.63;99011.06;5095238;28;20210;-72
2021/06/30 03:03:59;;;;;;;5.70;5.30;;;;;;;16.99;88.79;99015.22;5094991;28;20232;-74
2021/06/30 03:06:28;;;;;;;5.85;4.57;;;;;;;16.71;90.94;99017.78;5095124;28;20642;-74
2021/06/30 03:08:54;;;;;;;5.47;4.90;;;;;;;16.86;90.18;99010.06;5095362;28;20265;-74
2021/06/30 03:11:21;;;;;;;5.40;4.90;;;;;;;16.59;91.57;99018.91;5094536;28;20291;-73
2021/06/30 03:13:47;;;;;;;8.15;5.00;;;;;;;16.63;92.56;99017.63;5095088;28;20185;-73
2021/06/30 03:16:15;;;;;;;5.43;4.32;;;;;;;16.76;91.58;99018.19;5095283;28;20588;-73
2021/06/30 03:18:42;;;;;;;4.88;4.35;;;;;;;16.82;91.07;99011.34;5114925;28;20206;-73
2021/06/30 03:21:09;;;;;;;3.92;3.60;;;;;;;16.96;89.52;99023.66;5115584;28;20274;-75
2021/06/30 03:23:37;;;;;;;3.42;3.13;;;;;;;16.88;90.00;99021.66;5114633;28;20221;-74
2021/06/30 03:26:04;;;;;;;3.10;2.88;;;;;;;16.90;89.73;99016.94;5115134;28;20270;-74
2021/06/30 03:28:30;;;;;;;3.63;2.20;;;;;;;16.84;90.04;99014.78;5115111;28;20187;-73
2021/06/30 03:30:57;;;;;;;3.55;2.97;;;;;;;16.58;91.40;99011.75;5115311;28;20289;-73
2021/06/30 03:33:24;;;;;;;3.42;2.83;;;;;;;16.73;90.80;99013.03;5114081;28;20527;-74
2021/06/30 03:35:50;;;;;;;4.43;2.53;;;;;;;16.65;91.20;99013.75;5114662;27;20184;-73
2021/06/30 03:38:17;;;;;;;2.55;2.38;;;;;;;16.76;91.17;99014.63;5114563;28;20249;-74
2021/06/30 03:40:46;;;;;;;4.18;3.22;;;;;;;16.70;91.41;99018.75;5114853;28;20184;-73
2021/06/30 03:43:12;;;;;;;3.55;2.90;;;;;;;16.65;91.26;99016.47;5114916;27;20274;-73
2021/06/30 03:45:39;;;;;;;10.85;3.55;;;;;;;16.77;90.46;99021.78;5114620;28;20241;-73
2021/06/30 03:48:06;;;;;;;3.45;3.00;;;;;;;16.82;90.32;99020.38;5112824;28;20195;-73
2021/06/30 03:50:33;;;;;;;3.40;3.10;;;;;;;16.80;90.55;99016.06;5114281;28;20194;-73
2021/06/30 03:52:59;;;;;;;3.50;2.72;;;;;;;16.72;91.09;99014.03;5114626;28;20245;-74
2021/06/30 03:55:26;;;;;;;10.15;3.25;;;;;;;16.61;91.07;99015.03;5114400;27;20188;-74
2021/06/30 03:57:54;;;;;;;5.13;4.55;;;;;;;16.53;91.95;99020.34;5114429;28;20615;-73
2021/06/30 04:00:20;;;;;;;3.78;3.20;;;;;;;16.57;92.28;99020.91;5114086;28;20184;-73
2021/06/30 04:02:47;;;;;;;4.00;3.70;;;;;;;16.61;91.16;99019.63;5114783;28;20186;-73
2021/06/30 04:05:14;;;;;;;5.22;4.03;;;;;;;16.56;90.97;99024.63;5113952;28;20235;-73
2021/06/30 04:07:40;;;;;;;6.05;4.13;;;;;;;16.63;90.56;99020.34;5114388;28;20279;-73
2021/06/30 04:10:08;;;;;;;6.90;4.05;;;;;;;16.61;90.67;99016.91;5114614;28;20677;-74
2021/06/30 04:12:34;;;;;;;4.50;3.83;;;;;;;16.60;90.93;99015.19;5114367;28;20195;-73
2021/06/30 04:15:03;;;;;;;4.25;3.75;;;;;;;16.61;90.03;99011.47;5094090;28;20188;-73
2021/06/30 04:17:29;;;;;;;4.32;3.92;;;;;;;16.59;90.77;99014.31;5093376;28;20186;-75
2021/06/30 04:19:58;;;;;;;4.55;3.38;;;;;;;16.72;89.75;99014.03;5093802;28;20598;-72
2021/06/30 04:22:27;;;;;;;4.60;4.20;;;;;;;16.87;88.57;99011.81;5093700;28;20188;-73
2021/06/30 04:24:53;;;;;;;5.28;3.83;;;;;;;16.87;87.80;99012.66;5093607;28;20218;-73
2021/06/30 04:27:20;;;;;;;4.68;4.25;;;;;;;16.69;88.40;99008.91;5093283;28;20227;-74
2021/06/30 04:29:47;;;;;;;6.35;4.70;;;;;;;16.66;88.31;99006.44;5093674;28;20235;-73
2021/06/30 04:32:15;;;;;;;5.22;4.72;;;;;;;16.79;87.97;99011.63;5093764;28;20287;-74
2021/06/30 04:34:41;;;;;;;5.45;5.03;;;;;;;16.68;86.97;99002.59;5093772;28;20546;-74
2021/06/30 04:37:08;;;;;;;5.30;4.80;;;;;;;16.31;89.73;99016.00;5093736;28;20671;-74
2021/06/30 04:39:35;;;;;;;4.47;4.07;;;;;;;16.57;88.67;99010.03;5093650;28;20200;-75
2021/06/30 04:42:02;;;;;;;6.18;5.65;;;;;;;16.68;88.11;99012.59;5093462;28;20621;-72
2021/06/30 04:44:28;;;;;;;4.70;4.35;;;;;;;16.78;87.11;99016.19;5092932;28;20308;-72
2021/06/30 04:46:55;;;;;;;5.22;4.45;;;;;;;16.80;86.52;99014.22;5093040;28;20220;-74
2021/06/30 04:49:23;;;;;;;4.30;3.30;;;;;;;16.86;86.74;99015.50;5093552;28;20540;-73
2021/06/30 04:51:49;;;;;;;7.85;4.38;;;;;;;17.09;85.41;99016.94;5092680;28;20295;-75
2021/06/30 04:54:17;;;;;;;4.95;4.25;;;;;;;17.28;84.31;99029.66;5093448;28;20271;-73
2021/06/30 04:56:44;;;;;;;4.47;4.03;;;;;;;17.29;83.31;99033.22;5093066;28;20211;-74
2021/06/30 04:59:10;;;;;;;6.05;4.18;;;;;;;17.26;83.25;99023.50;5093011;28;20186;-73
2021/06/30 05:01:37;;;;;;;4.80;4.30;;;;;;;17.26;82.87;99030.78;5098383;28;21051;-73
2021/06/30 05:04:04;;;;;;;5.72;5.15;;;;;;;17.20;82.56;99031.38;5093417;28;20234;-73
2021/06/30 05:06:34;;;;;;;7.85;3.60;;;;;;;17.35;81.85;99029.06;5104260;28;20197;-75
2021/06/30 05:09:00;;;;;;;4.80;4.10;;;;;;;17.20;81.79;99029.50;5092909;28;20618;-74
2021/06/30 05:11:29;;;;;;;4.32;4.03;;;;;;;17.21;81.64;99028.50;5092390;28;20280;-73
2021/06/30 05:13:58;;;;;;;6.43;3.85;;;;;;;17.14;82.15;99029.22;5092493;28;20602;-74
2021/06/30 05:16:25;;;;;;;3.50;3.17;;;;;;;16.96;82.73;99021.81;5093721;28;20268;-74
2021/06/30 05:18:52;;;;;;;4.40;3.60;;;;;;;16.83;83.61;99027.53;5112765;28;20191;-74
2021/06/30 05:21:18;;;;;;;3.72;3.42;;;;;;;16.77;84.56;99019.06;5112399;28;20191;-73
2021/06/30 05:23:46;;;;;;;4.43;4.03;;;;;;;16.75;85.06;99021.91;5111827;28;20195;-73
2021/06/30 05:26:13;;;;;;;6.10;4.05;;;;;;;16.87;84.34;99022.69;5101738;28;20246;-74
2021/06/30 05:28:40;;;;;;;5.38;4.05;;;;;;;16.78;84.47;99027.06;5103375;28;20216;-74
2021/06/30 05:31:09;;;;;;;3.65;3.33;;;;;;;16.64;85.64;99030.19;5091526;28;20196;-74
2021/06/30 05:33:36;;;;;;;4.22;3.83;;;;;;;16.56;85.45;99033.63;5092098;28;20267;-73
2021/06/30 05:36:04;;;;;;;4.55;4.15;;;;;;;16.40;86.38;99031.47;5091544;28;20302;-73
2021/06/30 05:38:30;;;;;;;4.70;3.70;;;;;;;16.35;86.74;99022.88;5092289;28;20290;-74
2021/06/30 05:40:59;;;;;;;17.80;12.52;;;;;;;16.39;87.06;99029.75;5091394;28;20634;-74
2021/06/30 05:43:26;;;;;;;4.38;4.03;;;;;;;16.47;86.83;99032.59;5109611;28;20191;-74
2021/06/30 05:45:53;;;;;;;3.97;3.67;;;;;;;16.73;84.82;99023.91;5112491;28;20298;-73
2021/06/30 05:48:19;;;;;;;3.70;3.40;;;;;;;16.81;84.37;99031.41;5112531;28;20235;-75
2021/06/30 05:50:46;;;;;;;5.93;3.83;;;;;;;16.99;83.15;99028.81;5110377;28;20275;-74
2021/06/30 05:53:13;;;;;;;3.70;3.40;;;;;;;17.09;82.69;99030.53;5111765;28;20289;-74
2021/06/30 05:55:39;;;;;;;4.53;3.90;;;;;;;17.05;81.89;99022.81;5110795;28;20183;-74
2021/06/30 05:58:07;;;;;;;4.88;4.47;;;;;;;16.96;82.11;99027.25;5096010;28;20229;-75
2021/06/30 06:00:34;;;;;;;3.55;2.83;;;;;;;17.04;81.31;99027.38;5112186;28;20570;-74
2021/06/30 06:03:01;;;;;;;17.33;13.23;;;;;;;16.92;81.91;99024.97;5116789;27;20183;-75
2021/06/30 06:05:28;;;;;;;3.25;2.90;;;;;;;16.78;83.17;99028.91;5116182;27;20322;-73
2021/06/30 06:07:54;;;;;;;5.75;3.03;;;;;;;16.86;82.44;99027.22;5116488;28;20190;-74
2021/06/30 06:10:21;;;;;;;3.60;3.30;;;;;;;16.85;82.79;99024.69;5116380;28;20223;-75
2021/06/30 06:12:48;;;;;;;4.32;3.92;;;;;;;17.01;82.05;99018.66;5108304;28;20191;-73
2021/06/30 06:15:16;;;;;;;4.07;3.10;;;;;;;17.36;80.89;99026.19;5110570;28;20208;-74
2021/06/30 06:17:42;;;;;;;7.75;3.42;;;;;;;17.32;80.39;99027.50;5095585;28;20220;-73
2021/06/30 06:20:11;;;;;;;3.28;2.90;;;;;;;17.60;79.27;99025.69;5095886;28;20291;-74
2021/06/30 06:22:37;;;;;;;3.75;3.40;;;;;;;17.54;78.15;99020.84;5096129;28;20220;-74
2021/06/30 06:25:06;;;;;;;4.13;3.22;;;;;;;17.52;79.24;99028.28;5095719;28;20305;-74
2021/06/30 06:27:33;;;;;;;5.15;2.70;;;;;;;18.07;76.03;99016.66;5095437;28;20205;-74
2021/06/30 06:30:00;;;;;;;3.92;2.70;;;;;;;18.13;74.76;99014.19;5095498;28;20649;-74
2021/06/30 06:32:28;;;;;;;5.53;3.35;;;;;;;18.27;74.31;99020.13;5094000;28;20202;-75
2021/06/30 06:34:55;;;;;;;3.20;2.90;;;;;;;18.10;75.31;99025.38;5096652;28;20718;-74
2021/06/30 06:37:22;;;;;;;4.15;2.60;;;;;;;18.24;74.54;99028.59;5096392;28;20282;-75
2021/06/30 06:39:49;;;;;;;4.10;3.47;;;;;;;18.13;74.93;99030.53;5096495;28;20655;-74
2021/06/30 06:42:15;;;;;;;7.82;2.83;;;;;;;18.25;74.22;99028.47;5115629;27;20210;-75
2021/06/30 06:44:44;;;;;;;9.80;2.90;;;;;;;18.40;73.50;99026.06;5116541;28;20229;-75
2021/06/30 06:47:11;;;;;;;9.88;3.33;;;;;;;18.65;72.73;99026.34;5116375;28;20233;-74
2021/06/30 06:49:39;;;;;;;15.40;4.40;;;;;;;18.85;71.83;99029.81;5116436;28;20272;-74
2021/06/30 06:52:06;;;;;;;8.45;3.80;;;;;;;19.25;70.69;99029.31;5116375;28;20190;-75
2021/06/30 06:54:33;;;;;;;4.93;3.10;;;;;;;19.58;68.53;99018.59;5116133;28;20235;-74
2021/06/30 06:56:59;;;;;;;7.28;2.63;;;;;;;19.57;67.78;99025.09;5115791;28;20214;-75
2021/06/30 06:59:26;;;;;;;2.75;2.55;;;;;;;19.22;68.46;99026.91;5115913;28;20560;-74
2021/06/30 07:01:53;;;;;;;10.23;4.32;;;;;;;19.84;66.86;99021.38;5116202;28;20249;-76
2021/06/30 07:04:19;;;;;;;31.30;8.70;;;;;;;20.48;64.05;99020.94;5115926;28;20230;-75
2021/06/30 07:06:47;;;;;;;9.18;2.92;;;;;;;20.50;63.27;99027.09;5116636;28;20889;-75
2021/06/30 07:09:14;;;;;;;7.07;2.53;;;;;;;20.61;62.43;99027.66;5114645;28;20207;-75
2021/06/30 07:11:41;;;;;;;5.87;3.50;;;;;;;20.68;61.60;99032.47;5094617;28;20457;-73
2021/06/30 07:14:08;;;;;;;16.97;3.70;;;;;;;20.44;61.99;99031.34;5094267;28;20450;-75
2021/06/30 07:16:34;;;;;;;5.70;2.80;;;;;;;19.94;62.46;99030.31;5094208;28;20470;-75
2021/06/30 07:19:01;;;;;;;4.22;1.90;;;;;;;19.40;64.14;99023.25;5094729;28;20449;-75
2021/06/30 07:21:27;;;;;;;10.68;2.45;;;;;;;19.20;64.24;99025.31;5094667;28;20635;-73
2021/06/30 07:23:55;;;;;;;4.55;2.40;;;;;;;19.20;64.98;99028.94;5095151;28;20193;-75
2021/06/30 07:26:23;;;;;;;2.70;2.20;;;;;;;18.69;67.34;99022.28;5094628;28;20249;-75
2021/06/30 07:28:52;;;;;;;4.43;2.55;;;;;;;18.72;67.31;99022.84;5095533;28;20210;-75
2021/06/30 07:31:19;;;;;;;4.07;2.80;;;;;;;18.67;67.53;99025.16;5095358;28;20186;-75
2021/06/30 07:33:45;;;;;;;9.15;3.17;;;;;;;18.77;66.65;99027.88;5095642;28;20658;-74
2021/06/30 07:36:14;;;;;;;5.80;3.50;;;;;;;18.79;65.97;99031.31;5095705;28;20231;-73
2021/06/30 07:38:41;;;;;;;4.35;3.00;;;;;;;19.09;64.90;99023.72;5094603;28;20221;-76
2021/06/30 07:41:09;;;;;;;20.10;3.42;;;;;;;19.31;64.04;99027.81;5094810;28;20659;-75
2021/06/30 07:43:36;;;;;;;25.55;4.90;;;;;;;19.38;63.82;99032.47;5094209;28;20182;-75
2021/06/30 07:46:03;;;;;;;14.95;3.67;;;;;;;19.55;63.45;99029.84;5094377;28;20250;-75
2021/06/30 07:48:30;;;;;;;4.05;2.85;;;;;;;19.58;63.77;99030.41;5093965;28;20249;-74
2021/06/30 07:50:56;;;;;;;6.38;3.33;;;;;;;19.76;63.08;99033.13;5093975;28;20234;-75
2021/06/30 07:53:23;;;;;;;11.77;3.00;;;;;;;19.87;62.70;99021.03;5093969;28;20231;-74
2021/06/30 07:55:50;;;;;;;6.10;2.97;;;;;;;19.83;62.35;99033.31;5094956;28;20223;-74
2021/06/30 07:58:20;;;;;;;4.63;2.45;;;;;;;18.90;66.11;99030.19;5094330;28;20643;-75
2021/06/30 08:00:47;;;;;;;3.10;2.80;;;;;;;18.97;65.70;99036.72;5112099;28;20275;-74
2021/06/30 08:03:13;;;;;;;5.90;2.53;;;;;;;18.78;66.86;99036.91;5115267;27;20483;-75
2021/06/30 08:05:40;;;;;;;12.85;4.05;;;;;;;19.07;65.30;99028.47;5114501;28;20226;-75
2021/06/30 08:08:07;;;;;;;9.00;2.17;;;;;;;19.12;64.71;99037.88;5114068;28;20209;-74
2021/06/30 08:10:34;;;;;;;3.25;2.30;;;;;;;19.27;64.50;99029.16;5106879;28;20191;-75
2021/06/30 08:13:03;;;;;;;2.10;1.90;;;;;;;19.38;64.29;99040.66;5095127;28;20231;-75
2021/06/30 08:15:31;;;;;;;5.30;2.80;;;;;;;19.88;62.94;99038.28;5094284;28;20698;-74
2021/06/30 08:17:58;;;;;;;4.18;2.10;;;;;;;19.97;61.40;99038.16;5095588;28;20680;-75
2021/06/30 08:20:24;;;;;;;4.00;1.60;;;;;;;19.81;61.49;99035.34;5107232;28;20236;-74
2021/06/30 08:22:51;;;;;;;3.03;1.70;;;;;;;19.74;62.35;99037.88;5108330;28;20505;-74
2021/06/30 08:25:19;;;;;;;2.20;2.00;;;;;;;19.00;64.55;99030.13;5098001;28;20211;-73
2021/06/30 08:27:46;;;;;;;2.42;2.22;;;;;;;18.62;66.37;99034.84;5092458;28;20198;-71
2021/06/30 08:30:13;;;;;;;2.50;2.30;;;;;;;18.54;67.09;99038.31;5092543;28;20234;-75
2021/06/30 08:32:43;;;;;;;3.45;2.30;;;;;;;18.66;67.34;99039.81;5096339;28;20244;-73
2021/06/30 08:35:11;;;;;;;3.88;3.30;;;;;;;18.64;67.64;99041.84;5092925;28;20189;-72
2021/06/30 08:37:41;;;;;;;3.95;3.28;;;;;;;18.91;67.15;99046.41;5092905;28;20205;-75
2021/06/30 08:40:09;;;;;;;6.85;2.25;;;;;;;19.17;65.72;99043.75;5093294;28;20204;-75
2021/06/30 08:42:36;;;;;;;2.63;2.42;;;;;;;19.59;64.43;99048.50;5093133;28;20551;-74
2021/06/30 08:45:04;;;;;;;7.07;2.60;;;;;;;20.14;61.91;99047.28;5093416;28;20592;-73
2021/06/30 08:47:35;;;;;;;3.67;2.72;;;;;;;20.27;61.71;99033.19;5093482;28;20211;-74
2021/06/30 08:50:06;;;;;;;2.33;2.13;;;;;;;20.16;61.72;99028.84;5091731;28;20227;-73
2021/06/30 08:52:35;;;;;;;2.95;2.00;;;;;;;20.00;62.15;99040.56;5095668;28;20987;-75
2021/06/30 08:55:02;;;;;;;3.37;2.10;;;;;;;19.72;63.39;99036.34;5113449;28;20310;-74
2021/06/30 08:57:30;;;;;;;5.05;2.88;;;;;;;19.78;63.51;99035.66;5113188;28;20508;-74
2021/06/30 08:59:57;;;;;;;4.00;2.65;;;;;;;19.74;63.72;99029.69;5111071;28;20619;-73
2021/06/30 09:02:24;;;;;;;2.93;2.63;;;;;;;19.69;64.34;99037.47;5112855;28;20214;-73
2021/06/30 09:04:59;;;;;;;3.15;2.70;;;;;;;19.51;64.76;99036.66;5110495;28;20536;-73
2021/06/30 09:07:28;;;;;;;3.60;3.22;;;;;;;19.05;65.17;99034.09;5112438;28;20274;-73
2021/06/30 09:09:54;;;;;;;3.20;2.90;;;;;;;18.82;66.44;99036.44;5110672;28;20573;-74
2021/06/30 09:12:37;;;;;;;2.70;2.50;;;;;;;18.71;67.99;99042.94;5092671;28;20624;-74
2021/06/30 09:15:15;;;;;;;4.20;2.60;;;;;;;18.84;68.17;99050.78;5092410;28;20301;-74
2021/06/30 09:17:44;;;;;;;3.10;2.72;;;;;;;18.67;68.66;99044.25;5094965;28;20229;-73
2021/06/30 09:20:11;;;;;;;5.38;2.85;;;;;;;18.84;68.33;99044.47;5100394;28;20263;-73
2021/06/30 09:22:48;;;;;;;3.80;2.40;;;;;;;18.85;68.17;99041.56;5092280;28;20187;-73
2021/06/30 09:25:32;;;;;;;5.25;2.58;;;;;;;19.13;66.65;99049.66;5092299;28;20683;-74
2021/06/30 09:27:59;;;;;;;3.35;2.15;;;;;;;19.47;65.66;99046.16;5091525;28;20268;-74
2021/06/30 09:30:26;;;;;;;5.20;2.67;;;;;;;19.66;64.60;99040.50;5091943;28;20183;-75
2021/06/30 09:32:55;;;;;;;4.47;2.30;;;;;;;20.05;63.49;99040.06;5091562;28;20180;-73
2021/06/30 09:35:24;;;;;;;3.67;2.97;;;;;;;20.45;63.00;99038.53;5092368;28;20184;-74
2021/06/30 09:37:52;;;;;;;4.70;2.40;;;;;;;20.78;61.71;99041.38;5092221;28;20438;-74
2021/06/30 09:40:20;;;;;;;3.30;3.00;;;;;;;21.07;60.80;99037.31;5091760;28;20434;-74
2021/06/30 09:42:48;;;;;;;2.53;2.27;;;;;;;20.63;60.96;99041.19;5091717;28;20899;-74
2021/06/30 09:45:17;;;;;;;3.10;2.90;;;;;;;20.76;59.80;99037.97;5091784;28;20474;-73
2021/06/30 09:47:46;;;;;;;2.53;2.27;;;;;;;20.92;59.45;99037.13;5091631;28;20481;-75
2021/06/30 09:50:13;;;;;;;4.27;2.40;;;;;;;21.12;58.96;99038.53;5092242;28;20430;-73
2021/06/30 09:52:42;;;;;;;5.10;2.47;;;;;;;21.19;58.93;99044.19;5091470;28;20448;-73
2021/06/30 09:55:26;;;;;;;3.50;2.53;;;;;;;21.37;58.21;99036.63;5091909;28;20497;-74
2021/06/30 09:57:52;;;;;;;4.33;2.40;;;;;;;21.54;58.01;99039.38;5089754;28;20449;-74
2021/06/30 10:00:19;;;;;;;11.13;2.93;;;;;;;21.47;58.73;99033.75;5091861;28;20939;-74
2021/06/30 10:02:48;;;;;;;3.43;2.57;;;;;;;21.42;58.29;99031.53;5091865;28;20914;-73
2021/06/30 10:05:27;;;;;;;3.80;3.13;;;;;;;21.18;58.73;99026.03;5091514;28;20566;-73
2021/06/30 10:07:57;;;;;;;4.00;3.20;;;;;;;20.54;59.97;99036.69;5091667;28;20529;-73
2021/06/30 10:10:24;;;;;;;4.53;4.13;;;;;;;20.19;62.15;99023.06;5085064;28;20477;-73
2021/06/30 10:12:52;;;;;;;5.20;3.40;;;;;;;20.10;62.46;99032.25;5071083;28;20450;-73
2021/06/30 10:15:21;;;;;;;3.80;3.37;;;;;;;19.89;63.10;99042.72;5085779;28;20430;-75
2021/06/30 10:17:48;;;;;;;3.60;3.30;;;;;;;19.55;64.31;99032.59;5091886;28;20446;-73
2021/06/30 10:20:15;;;;;;;4.60;3.35;;;;;;;19.51;64.53;99039.38;5091977;28;20192;-73
2021/06/30 10:22:42;;;;;;;4.35;3.80;;;;;;;19.23;65.25;99033.22;5091906;28;20202;-74
2021/06/30 10:25:10;;;;;;;3.97;3.67;;;;;;;19.69;64.47;99042.09;5091531;28;20293;-73
2021/06/30 10:27:38;;;;;;;4.78;4.38;;;;;;;19.97;63.52;99034.59;5091276;28;20689;-73
2021/06/30 10:30:08;;;;;;;3.75;3.40;;;;;;;20.35;62.41;99026.88;5091274;28;20310;-73
2021/06/30 10:32:37;;;;;;;6.23;3.90;;;;;;;20.84;60.93;99029.75;5091239;28;20188;-73
2021/06/30 10:35:15;;;;;;;5.23;3.93;;;;;;;21.14;59.68;99032.84;5091108;28;21299;-74
2021/06/30 10:37:52;;;;;;;8.60;4.30;;;;;;;21.56;58.15;99042.81;5091151;28;20457;-73
2021/06/30 10:40:22;;;;;;;3.67;3.37;;;;;;;21.20;58.85;99033.03;5091129;28;20436;-74
2021/06/30 10:43:05;;;;;;;6.73;3.43;;;;;;;20.95;60.16;99025.84;5092551;28;20428;-74
2021/06/30 10:45:33;;;;;;;5.53;5.00;;;;;;;21.35;59.40;99037.84;5094554;28;20488;-75
2021/06/30 10:48:05;;;;;;;13.47;12.13;;;;;;;21.53;57.73;99035.78;5094711;28;20492;-74
2021/06/30 10:50:36;;;;;;;4.17;3.87;;;;;;;21.40;57.78;99022.63;5095328;28;20513;-75
2021/06/30 10:53:38;;;;;;;4.73;4.00;;;;;;;21.49;58.36;99019.88;5095905;28;20438;-74
2021/06/30 10:56:10;;;;;;;4.43;3.27;;;;;;;21.38;58.47;99029.28;5052291;28;20477;-74
2021/06/30 10:58:38;;;;;;;8.57;3.77;;;;;;;21.19;59.51;99025.00;5088012;28;20456;-74
2021/06/30 11:01:12;;;;;;;6.43;4.37;;;;;;;21.04;59.89;99022.09;5094875;28;20522;-74
2021/06/30 11:03:47;;;;;;;4.80;3.87;;;;;;;20.86;60.11;99035.91;5094425;28;20573;-75
2021/06/30 11:06:25;;;;;;;5.43;3.23;;;;;;;20.66;61.15;99031.78;5094254;28;20477;-74
2021/06/30 11:08:54;;;;;;;4.13;2.93;;;;;;;20.54;61.52;99023.00;5094015;28;20530;-73
2021/06/30 11:12:02;;;;;;;3.60;2.50;;;;;;;20.27;61.90;99016.78;5080246;28;20431;-74
2021/06/30 11:14:43;;;;;;;4.47;3.30;;;;;;;20.24;62.52;99018.97;5074177;28;20484;-74
2021/06/30 11:17:29;;;;;;;3.53;2.60;;;;;;;20.67;61.26;99017.06;5074161;28;20423;-74
2021/06/30 11:19:56;;;;;;;4.37;4.03;;;;;;;20.40;61.26;99021.78;5073632;28;20450;-74
2021/06/30 11:22:33;;;;;;;3.70;3.40;;;;;;;19.97;63.75;99018.19;5082129;28;20510;-74
2021/06/30 11:25:01;;;;;;;3.93;3.60;;;;;;;19.91;64.78;99021.56;5094497;28;20426;-74
2021/06/30 11:27:44;;;;;;;4.47;4.07;;;;;;;19.88;69.95;99019.19;5093797;28;20520;-73
2021/06/30 11:30:13;;;;;;;5.23;3.47;;;;;;;20.11;69.11;99020.28;5093746;28;20533;-74
2021/06/30 11:32:49;;;;;;;6.23;3.23;;;;;;;20.26;69.39;99016.94;5093748;28;20470;-74
2021/06/30 11:35:32;;;;;;;6.97;3.50;;;;;;;20.11;69.97;99023.03;5093755;28;20469;-74
2021/06/30 11:38:12;;;;;;;24.50;13.67;;;;;;;19.89;72.53;99026.34;5106209;28;20433;-73